createdAt,value
2023-02-19T00:01:28.406Z,1.33
2023-02-19T00:03:56.657Z,1.90
2023-02-19T00:06:25.827Z,1.15
2023-02-19T00:08:52.897Z,1.05
2023-02-19T00:11:22.023Z,0.80
2023-02-19T00:13:51.018Z,1.30
2023-02-19T00:16:21.231Z,1.60
2023-02-19T00:18:48.138Z,1.30
2023-02-19T00:21:15.669Z,1.23
2023-02-19T00:23:42.358Z,0.80
2023-02-19T00:26:18.159Z,1.00
2023-02-19T00:28:47.723Z,1.20
2023-02-19T00:31:17.841Z,1.10
2023-02-19T00:33:46.589Z,0.70
2023-02-19T00:36:14.412Z,0.80
2023-02-19T00:38:42.442Z,0.60
2023-02-19T00:41:10.779Z,0.70
2023-02-19T00:43:37.549Z,0.70
2023-02-19T00:46:04.353Z,0.65
2023-02-19T00:48:30.992Z,0.68
2023-02-19T00:50:58.851Z,0.82
2023-02-19T00:53:25.521Z,0.80
2023-02-19T00:55:52.063Z,0.70
2023-02-19T00:58:18.688Z,0.60
2023-02-19T01:00:45.227Z,0.60
2023-02-19T01:03:11.766Z,0.60
2023-02-19T01:05:38.357Z,0.65
2023-02-19T01:08:07.047Z,0.60
2023-02-19T01:10:33.562Z,0.70
2023-02-19T01:13:00.183Z,0.70
2023-02-19T01:15:26.825Z,0.85
2023-02-19T01:17:53.479Z,0.60
2023-02-19T01:20:20.328Z,0.70
2023-02-19T01:22:46.895Z,0.75
2023-02-19T01:25:14.818Z,0.90
2023-02-19T01:27:41.428Z,1.27
2023-02-19T01:30:09.396Z,1.10
2023-02-19T01:32:36.052Z,1.13
2023-02-19T01:35:02.836Z,1.13
2023-02-19T01:37:29.484Z,1.10
2023-02-19T01:39:56.022Z,1.30
2023-02-19T01:42:24.166Z,1.58
2023-02-19T01:45:20.468Z,1.50
2023-02-19T01:47:49.280Z,1.75
2023-02-19T01:50:16.560Z,1.55
2023-02-19T01:52:43.175Z,1.70
2023-02-19T01:55:12.697Z,1.63
2023-02-19T01:57:45.229Z,2.00
2023-02-19T02:00:14.955Z,1.73
2023-02-19T02:02:44.993Z,2.05
2023-02-19T02:05:23.350Z,1.90
2023-02-19T02:07:50.367Z,1.77
2023-02-19T02:10:16.942Z,1.85
2023-02-19T02:12:44.938Z,2.30
2023-02-19T02:15:12.231Z,2.10
2023-02-19T02:17:51.906Z,2.10
2023-02-19T02:20:32.825Z,2.00
2023-02-19T02:23:07.061Z,1.98
2023-02-19T02:25:56.180Z,2.08
2023-02-19T02:28:40.553Z,1.80
2023-02-19T02:31:13.953Z,2.45
2023-02-19T02:33:46.555Z,1.98
2023-02-19T02:36:18.289Z,1.90
2023-02-19T02:41:14.856Z,1.60
2023-02-19T02:43:41.945Z,1.60
2023-02-19T02:46:12.239Z,1.45
2023-02-19T02:48:43.320Z,1.35
2023-02-19T02:51:15.828Z,1.60
2023-02-19T02:53:54.492Z,1.50
2023-02-19T02:56:22.237Z,1.73
2023-02-19T02:58:50.189Z,1.65
2023-02-19T03:01:23.741Z,1.67
2023-02-19T03:03:57.253Z,1.50
2023-02-19T03:06:28.281Z,1.75
2023-02-19T03:08:59.194Z,1.70
2023-02-19T03:11:25.937Z,2.20
2023-02-19T03:13:58.181Z,1.60
2023-02-19T03:16:31.039Z,1.52
2023-02-19T03:18:59.436Z,1.50
2023-02-19T03:21:28.301Z,1.80
2023-02-19T03:23:57.252Z,2.08
2023-02-19T03:26:26.055Z,1.90
2023-02-19T03:28:53.814Z,2.13
2023-02-19T03:31:24.633Z,2.03
2023-02-19T03:34:00.117Z,2.57
2023-02-19T03:36:33.489Z,2.85
2023-02-19T03:39:03.459Z,2.75
2023-02-19T03:41:35.204Z,2.80
2023-02-19T03:44:10.175Z,2.85
2023-02-19T03:46:45.774Z,3.17
2023-02-19T03:49:18.743Z,3.05
2023-02-19T03:51:50.957Z,2.90
2023-02-19T03:54:23.217Z,3.40
2023-02-19T03:56:54.848Z,3.20
2023-02-19T03:59:30.280Z,3.50
2023-02-19T04:02:02.830Z,2.92
2023-02-19T04:04:33.965Z,3.33
2023-02-19T04:07:00.739Z,3.20
2023-02-19T04:09:36.324Z,3.50
2023-02-19T04:12:09.120Z,3.95
2023-02-19T04:14:40.870Z,4.05
2023-02-19T04:17:14.015Z,4.45
2023-02-19T04:19:42.827Z,4.10
2023-02-19T04:22:11.035Z,4.30
2023-02-19T04:24:40.898Z,4.78
2023-02-19T04:27:09.087Z,4.97
2023-02-19T04:29:37.126Z,4.47
2023-02-19T04:32:05.212Z,5.05
2023-02-19T04:34:31.754Z,4.95
2023-02-19T04:36:59.637Z,4.75
2023-02-19T04:39:26.199Z,4.80
2023-02-19T04:41:52.803Z,5.53
2023-02-19T04:44:19.425Z,4.88
2023-02-19T04:46:45.924Z,5.13
2023-02-19T04:49:12.484Z,5.03
2023-02-19T04:51:39.252Z,5.35
2023-02-19T04:54:07.562Z,5.05
2023-02-19T04:56:34.166Z,5.72
2023-02-19T04:59:00.700Z,5.80
2023-02-19T05:01:27.235Z,6.07
2023-02-19T05:03:53.779Z,5.32
2023-02-19T05:06:20.570Z,4.85
2023-02-19T05:08:47.097Z,5.28
2023-02-19T05:11:15.051Z,5.05
2023-02-19T05:13:41.620Z,5.82
2023-02-19T05:16:13.369Z,5.95
2023-02-19T05:21:06.695Z,5.50
2023-02-19T05:23:33.357Z,8.55
2023-02-19T05:26:03.873Z,6.72
2023-02-19T05:28:31.825Z,5.90
2023-02-19T05:30:58.395Z,7.85
2023-02-19T05:33:25.939Z,7.30
2023-02-19T05:35:54.237Z,6.50
2023-02-19T05:38:21.853Z,7.85
2023-02-19T05:40:48.495Z,7.18
2023-02-19T05:43:15.514Z,7.15
2023-02-19T05:45:43.872Z,6.63
2023-02-19T05:48:11.204Z,6.88
2023-02-19T05:50:39.723Z,6.72
2023-02-19T05:53:12.748Z,6.60
2023-02-19T05:55:39.337Z,6.05
2023-02-19T05:58:05.937Z,6.82
2023-02-19T06:00:33.443Z,6.43
2023-02-19T06:03:01.452Z,6.78
2023-02-19T06:05:28.409Z,7.03
2023-02-19T06:07:54.973Z,7.55
2023-02-19T06:10:22.445Z,7.35
2023-02-19T06:12:52.609Z,6.82
2023-02-19T06:15:19.205Z,5.88
2023-02-19T06:17:45.704Z,6.97
2023-02-19T06:20:13.752Z,7.40
2023-02-19T06:22:40.284Z,6.68
2023-02-19T06:25:07.329Z,6.95
2023-02-19T06:27:36.237Z,6.97
2023-02-19T06:30:03.067Z,7.05
2023-02-19T06:32:29.668Z,7.32
2023-02-19T06:34:56.465Z,7.65
2023-02-19T06:37:24.360Z,7.47
2023-02-19T06:39:51.031Z,7.07
2023-02-19T06:42:17.669Z,6.82
2023-02-19T06:44:44.261Z,6.75
2023-02-19T06:47:10.801Z,8.13
2023-02-19T06:49:38.906Z,8.50
2023-02-19T06:52:05.501Z,8.00
2023-02-19T06:54:33.400Z,7.47
2023-02-19T06:57:01.301Z,8.18
2023-02-19T06:59:28.090Z,7.47
2023-02-19T07:01:54.602Z,7.10
2023-02-19T07:04:21.267Z,8.85
2023-02-19T07:06:53.695Z,7.45
2023-02-19T07:09:22.183Z,7.25
2023-02-19T07:11:50.058Z,8.52
2023-02-19T07:14:17.263Z,7.55
2023-02-19T07:16:44.436Z,8.13
2023-02-19T07:19:11.134Z,7.50
2023-02-19T07:21:38.005Z,9.02
2023-02-19T07:24:05.222Z,7.00
2023-02-19T07:26:32.259Z,7.03
2023-02-19T07:29:00.435Z,7.47
2023-02-19T07:31:27.403Z,8.27
2023-02-19T07:33:54.816Z,7.03
2023-02-19T07:36:23.010Z,7.72
2023-02-19T07:38:54.032Z,7.80
2023-02-19T07:41:23.967Z,7.20
2023-02-19T07:43:50.546Z,7.13
2023-02-19T07:46:18.442Z,6.68
2023-02-19T07:48:45.449Z,6.90
2023-02-19T07:51:14.404Z,7.00
2023-02-19T07:53:40.948Z,6.72
2023-02-19T07:56:08.538Z,8.65
2023-02-19T07:58:35.534Z,7.20
2023-02-19T08:01:10.885Z,7.50
2023-02-19T08:03:39.328Z,7.28
2023-02-19T08:06:06.690Z,6.68
2023-02-19T08:08:33.952Z,7.10
2023-02-19T08:11:01.517Z,6.90
2023-02-19T08:13:29.939Z,7.50
2023-02-19T08:16:18.233Z,7.50
2023-02-19T08:21:16.372Z,7.70
2023-02-19T08:23:43.180Z,6.82
2023-02-19T08:26:09.696Z,8.38
2023-02-19T08:28:36.744Z,7.55
2023-02-19T08:31:12.174Z,7.53
2023-02-19T08:33:39.929Z,7.57
2023-02-19T08:36:10.887Z,7.55
2023-02-19T08:38:37.648Z,7.25
2023-02-19T08:41:05.924Z,7.65
2023-02-19T08:43:33.022Z,7.82
2023-02-19T08:46:00.123Z,7.53
2023-02-19T08:48:27.085Z,7.65
2023-02-19T08:50:55.193Z,7.65
2023-02-19T08:53:23.801Z,8.20
2023-02-19T08:55:50.782Z,7.20
2023-02-19T08:58:17.456Z,7.05
2023-02-19T09:00:44.102Z,6.88
2023-02-19T09:03:10.847Z,7.53
2023-02-19T09:05:37.747Z,7.20
2023-02-19T09:08:04.465Z,6.65
2023-02-19T09:10:32.508Z,7.93
2023-02-19T09:12:59.249Z,7.65
2023-02-19T09:15:26.178Z,6.75
2023-02-19T09:17:53.178Z,7.05
2023-02-19T09:20:20.153Z,7.03
2023-02-19T09:22:47.119Z,7.40
2023-02-19T09:25:13.917Z,7.55
2023-02-19T09:27:41.877Z,8.30
2023-02-19T09:30:09.010Z,9.45
2023-02-19T09:32:35.694Z,11.85
2023-02-19T09:35:02.216Z,7.88
2023-02-19T09:37:28.804Z,8.57
2023-02-19T09:39:55.630Z,6.95
2023-02-19T09:42:24.470Z,7.45
2023-02-19T09:44:57.462Z,7.97
2023-02-19T09:47:26.117Z,7.10
2023-02-19T09:49:55.764Z,7.05
2023-02-19T09:52:31.454Z,6.60
2023-02-19T09:55:01.314Z,6.40
2023-02-19T09:57:30.959Z,6.68
2023-02-19T10:00:04.320Z,6.53
2023-02-19T10:02:31.602Z,6.20
2023-02-19T10:04:58.715Z,5.47
2023-02-19T10:07:29.967Z,5.45
2023-02-19T10:10:00.159Z,6.18
2023-02-19T10:12:30.080Z,4.95
2023-02-19T10:15:05.130Z,6.97
2023-02-19T10:17:32.470Z,5.03
2023-02-19T10:19:59.051Z,5.18
2023-02-19T10:22:25.875Z,4.88
2023-02-19T10:24:55.982Z,4.60
2023-02-19T10:27:25.162Z,5.55
2023-02-19T10:29:54.429Z,11.15
2023-02-19T10:32:24.567Z,5.13
2023-02-19T10:35:09.993Z,5.35
2023-02-19T10:37:43.074Z,5.47
2023-02-19T10:40:16.109Z,5.25
2023-02-19T10:42:46.111Z,5.18
2023-02-19T10:45:19.815Z,5.03
2023-02-19T10:47:48.072Z,5.32
2023-02-19T10:50:23.585Z,5.20
2023-02-19T10:52:53.577Z,6.70
2023-02-19T10:55:27.576Z,5.72
2023-02-19T10:57:54.209Z,5.10
2023-02-19T11:00:23.724Z,5.82
2023-02-19T11:03:19.091Z,5.28
2023-02-19T11:06:00.810Z,5.93
2023-02-19T11:08:28.152Z,6.50
2023-02-19T11:10:54.928Z,5.90
2023-02-19T11:13:28.464Z,5.93
2023-02-19T11:15:56.243Z,6.72
2023-02-19T11:18:27.017Z,6.63
2023-02-19T11:20:56.517Z,6.43
2023-02-19T11:23:27.642Z,5.00
2023-02-19T11:25:57.319Z,4.82
2023-02-19T11:28:30.768Z,5.32
2023-02-19T11:31:14.582Z,5.78
2023-02-19T11:33:52.277Z,5.32
2023-02-19T11:36:31.307Z,4.18
2023-02-19T11:39:02.600Z,4.55
2023-02-19T11:42:03.800Z,5.50
2023-02-19T11:44:46.489Z,6.25
2023-02-19T11:47:51.164Z,11.15
2023-02-19T11:50:26.915Z,20.95
2023-02-19T11:53:07.137Z,8.50
2023-02-19T11:55:53.796Z,7.20
2023-02-19T11:58:55.294Z,8.68
2023-02-19T12:01:26.945Z,5.63
2023-02-19T12:06:44.794Z,4.80
2023-02-19T12:09:28.665Z,6.05
2023-02-19T12:12:38.186Z,4.63
2023-02-19T12:15:35.299Z,5.05
2023-02-19T12:18:24.347Z,4.93
2023-02-19T12:21:04.299Z,5.47
2023-02-19T12:24:11.539Z,5.00
2023-02-19T12:26:47.519Z,5.93
2023-02-19T12:29:32.451Z,4.85
2023-02-19T12:32:18.140Z,4.20
2023-02-19T12:35:02.459Z,4.93
2023-02-19T12:37:40.937Z,4.55
2023-02-19T12:40:25.587Z,4.15
2023-02-19T12:43:04.951Z,4.43
2023-02-19T12:45:37.752Z,4.65
2023-02-19T12:48:14.083Z,4.43
2023-02-19T12:50:41.957Z,4.32
2023-02-19T12:53:24.679Z,4.88
2023-02-19T12:55:53.748Z,3.75
2023-02-19T12:58:29.175Z,4.00
2023-02-19T13:00:57.104Z,3.70
2023-02-19T13:03:30.347Z,3.45
2023-02-19T13:06:02.915Z,3.90
2023-02-19T13:08:36.513Z,4.32
2023-02-19T13:11:09.555Z,3.72
2023-02-19T13:13:40.773Z,4.03
2023-02-19T13:16:11.426Z,4.45
2023-02-19T13:18:43.924Z,4.28
2023-02-19T13:21:12.404Z,3.55
2023-02-19T13:23:42.979Z,3.10
2023-02-19T13:26:31.125Z,3.63
2023-02-19T13:29:09.925Z,3.78
2023-02-19T13:31:53.630Z,3.72
2023-02-19T13:34:33.492Z,3.72
2023-02-19T13:37:01.297Z,4.47
2023-02-19T13:39:29.243Z,4.63
2023-02-19T13:41:59.261Z,4.00
2023-02-19T13:44:28.568Z,3.58
2023-02-19T13:46:55.296Z,3.42
2023-02-19T13:49:48.801Z,4.45
2023-02-19T13:52:40.504Z,3.50
2023-02-19T13:55:44.123Z,3.03
2023-02-19T13:58:50.247Z,3.60
2023-02-19T14:01:18.375Z,3.63
2023-02-19T14:03:48.243Z,3.88
2023-02-19T14:06:14.852Z,3.92
2023-02-19T14:08:49.760Z,4.10
2023-02-19T14:11:17.658Z,3.83
2023-02-19T14:14:24.416Z,3.60
2023-02-19T14:16:56.869Z,3.63
2023-02-19T14:19:58.479Z,3.35
2023-02-19T14:22:47.519Z,3.75
2023-02-19T14:25:26.980Z,2.80
2023-02-19T14:27:57.001Z,3.13
2023-02-19T14:30:24.101Z,2.47
2023-02-19T14:33:02.739Z,2.83
2023-02-19T14:35:40.285Z,3.00
2023-02-19T14:38:14.212Z,3.38
2023-02-19T14:40:42.060Z,3.03
2023-02-19T14:43:14.138Z,3.10
2023-02-19T14:45:43.750Z,3.88
2023-02-19T14:48:21.169Z,3.35
2023-02-19T14:50:50.794Z,3.70
2023-02-19T14:53:20.280Z,3.95
2023-02-19T14:55:47.865Z,3.70
2023-02-19T14:58:19.721Z,4.05
2023-02-19T15:00:46.454Z,4.55
2023-02-19T15:03:29.759Z,4.10
2023-02-19T15:06:00.665Z,4.35
2023-02-19T15:08:32.410Z,5.57
2023-02-19T15:10:59.435Z,4.78
2023-02-19T15:13:29.191Z,4.30
2023-02-19T15:15:57.044Z,5.20
2023-02-19T15:18:25.268Z,6.03
2023-02-19T15:20:59.923Z,5.13
2023-02-19T15:23:27.676Z,5.25
2023-02-19T15:25:54.357Z,5.57
2023-02-19T15:28:30.324Z,4.95
2023-02-19T15:31:14.025Z,5.28
2023-02-19T15:33:49.183Z,5.85
2023-02-19T15:36:24.675Z,5.32
2023-02-19T15:38:56.715Z,5.25
2023-02-19T15:41:26.396Z,4.88
2023-02-19T15:43:59.127Z,5.72
2023-02-19T15:46:26.108Z,4.95
2023-02-19T15:48:59.478Z,5.85
2023-02-19T15:51:34.709Z,5.18
2023-02-19T15:54:07.338Z,5.65
2023-02-19T15:56:37.896Z,6.25
2023-02-19T15:59:12.041Z,5.95
2023-02-19T16:01:39.831Z,6.80
2023-02-19T16:04:12.179Z,6.30
2023-02-19T16:06:53.205Z,5.90
2023-02-19T16:09:21.698Z,7.15
2023-02-19T16:11:51.071Z,6.72
2023-02-19T16:14:29.044Z,6.85
2023-02-19T16:16:58.367Z,7.15
2023-02-19T16:19:28.643Z,6.47
2023-02-19T16:21:58.126Z,6.47
2023-02-19T16:24:30.992Z,6.45
2023-02-19T16:26:58.824Z,6.18
2023-02-19T16:29:27.896Z,6.93
2023-02-19T16:31:57.094Z,6.43
2023-02-19T16:34:32.629Z,6.70
2023-02-19T16:37:01.781Z,5.68
2023-02-19T16:39:28.472Z,6.38
2023-02-19T16:42:15.987Z,5.78
2023-02-19T16:44:43.519Z,5.38
2023-02-19T16:47:30.847Z,6.28
2023-02-19T16:50:00.016Z,5.22
2023-02-19T16:52:28.835Z,6.07
2023-02-19T16:54:55.447Z,7.35
2023-02-19T16:57:22.072Z,5.60
2023-02-19T16:59:48.680Z,4.95
2023-02-19T17:02:22.135Z,4.93
2023-02-19T17:04:49.234Z,5.07
2023-02-19T17:07:17.494Z,4.72
2023-02-19T17:09:45.691Z,4.97
2023-02-19T17:12:13.383Z,4.90
2023-02-19T17:14:40.424Z,4.95
2023-02-19T17:17:07.190Z,4.75
2023-02-19T17:19:33.879Z,4.82
2023-02-19T17:22:00.493Z,5.05
2023-02-19T17:24:27.198Z,4.95
2023-02-19T17:26:55.070Z,5.90
2023-02-19T17:29:21.761Z,7.85
2023-02-19T17:31:48.405Z,4.72
2023-02-19T17:34:15.086Z,4.97
2023-02-19T17:36:41.692Z,4.85
2023-02-19T17:39:13.893Z,4.75
2023-02-19T17:41:40.961Z,4.65
2023-02-19T17:44:08.989Z,5.22
2023-02-19T17:46:35.852Z,5.30
2023-02-19T17:49:02.432Z,5.78
2023-02-19T17:51:29.101Z,4.95
2023-02-19T17:53:55.701Z,5.55
2023-02-19T17:56:24.420Z,6.85
2023-02-19T17:58:51.791Z,6.72
2023-02-19T18:01:20.314Z,5.63
2023-02-19T18:03:47.276Z,6.50
2023-02-19T18:06:14.275Z,6.65
2023-02-19T18:08:46.980Z,6.10
2023-02-19T18:11:13.870Z,8.25
2023-02-19T18:13:40.493Z,7.20
2023-02-19T18:16:07.377Z,6.38
2023-02-19T18:18:35.624Z,7.18
2023-02-19T18:21:02.294Z,6.95
2023-02-19T18:23:29.032Z,6.60
2023-02-19T18:25:55.631Z,7.30
2023-02-19T18:28:22.320Z,6.72
2023-02-19T18:30:49.139Z,6.45
2023-02-19T18:33:15.717Z,5.60
2023-02-19T18:35:43.669Z,6.50
2023-02-19T18:38:10.193Z,6.40
2023-02-19T18:40:36.766Z,6.05
2023-02-19T18:43:04.402Z,6.07
2023-02-19T18:45:31.135Z,7.00
2023-02-19T18:47:57.638Z,6.03
2023-02-19T18:50:24.188Z,5.50
2023-02-19T18:52:52.084Z,4.90
2023-02-19T18:55:18.769Z,5.03
2023-02-19T18:57:46.145Z,4.82
2023-02-19T19:00:19.145Z,4.72
2023-02-19T19:02:49.818Z,3.90
2023-02-19T19:05:19.351Z,3.88
2023-02-19T19:07:45.842Z,3.63
2023-02-19T19:10:13.778Z,4.22
2023-02-19T19:12:40.279Z,3.40
2023-02-19T19:15:07.514Z,3.33
2023-02-19T19:17:34.017Z,3.50
2023-02-19T19:20:00.591Z,3.47
2023-02-19T19:22:27.388Z,3.10
2023-02-19T19:24:53.948Z,2.85
2023-02-19T19:27:21.857Z,2.78
2023-02-19T19:29:48.682Z,2.67
2023-02-19T19:32:15.793Z,2.17
2023-02-19T19:34:42.569Z,2.63
2023-02-19T19:37:09.605Z,2.40
2023-02-19T19:39:36.298Z,2.60
2023-02-19T19:42:02.986Z,2.00
2023-02-19T19:44:30.903Z,2.90
2023-02-19T19:46:57.556Z,2.28
2023-02-19T19:49:24.682Z,3.40
2023-02-19T19:51:51.773Z,3.75
2023-02-19T19:54:19.489Z,2.58
2023-02-19T19:56:47.378Z,1.92
2023-02-19T19:59:16.944Z,2.72
2023-02-19T20:01:50.144Z,2.70
2023-02-19T20:04:17.413Z,2.10
2023-02-19T20:06:44.115Z,3.67
2023-02-19T20:09:11.198Z,2.92
2023-02-19T20:11:44.060Z,2.20
2023-02-19T20:14:10.733Z,2.90
2023-02-19T20:16:37.449Z,2.53
2023-02-19T20:19:05.675Z,2.40
2023-02-19T20:21:32.263Z,2.20
2023-02-19T20:23:59.355Z,2.15
2023-02-19T20:26:28.212Z,2.30
2023-02-19T20:28:55.573Z,2.30
2023-02-19T20:31:22.934Z,2.30
2023-02-19T20:33:50.480Z,2.40
2023-02-19T20:36:19.006Z,2.50
2023-02-19T20:38:46.119Z,2.47
2023-02-19T20:41:13.093Z,2.70
2023-02-19T20:43:39.801Z,3.13
2023-02-19T20:46:06.396Z,2.63
2023-02-19T20:48:33.226Z,2.70
2023-02-19T20:50:59.765Z,3.03
2023-02-19T20:53:28.810Z,2.65
2023-02-19T20:55:55.830Z,2.75
2023-02-19T20:58:23.045Z,3.10
2023-02-19T21:00:49.671Z,2.58
2023-02-19T21:03:16.270Z,2.35
2023-02-19T21:05:42.800Z,2.72
2023-02-19T21:08:09.342Z,3.08
2023-02-19T21:10:37.363Z,3.33
2023-02-19T21:13:04.202Z,2.40
2023-02-19T21:15:30.711Z,2.35
2023-02-19T21:17:57.419Z,2.33
2023-02-19T21:20:23.940Z,2.28
2023-02-19T21:22:50.539Z,2.28
2023-02-19T21:25:17.210Z,2.50
2023-02-19T21:27:45.393Z,2.67
2023-02-19T21:30:12.345Z,2.40
2023-02-19T21:32:38.919Z,2.13
2023-02-19T21:35:05.932Z,2.65
2023-02-19T21:37:32.548Z,2.38
2023-02-19T21:39:59.079Z,2.22
2023-02-19T21:42:27.907Z,2.53
2023-02-19T21:44:55.969Z,2.72
2023-02-19T21:47:22.500Z,2.75
2023-02-19T21:49:49.025Z,2.33
2023-02-19T21:52:15.695Z,2.47
2023-02-19T21:54:42.201Z,2.53
2023-02-19T21:57:08.904Z,2.55
2023-02-19T21:59:35.432Z,2.33
2023-02-19T22:02:03.450Z,2.47
2023-02-19T22:04:30.107Z,1.67
2023-02-19T22:06:56.836Z,1.50
2023-02-19T22:09:23.360Z,1.70
2023-02-19T22:11:50.035Z,1.95
2023-02-19T22:14:16.549Z,1.75
2023-02-19T22:16:43.168Z,1.77
2023-02-19T22:19:12.369Z,1.60
2023-02-19T22:21:42.901Z,1.20
2023-02-19T22:24:14.885Z,1.67
2023-02-19T22:26:41.480Z,1.55
2023-02-19T22:29:10.147Z,1.50
2023-02-19T22:31:37.067Z,1.92
2023-02-19T22:34:04.128Z,1.50
2023-02-19T22:36:33.734Z,1.70
2023-02-19T22:39:01.327Z,1.60
2023-02-19T22:41:28.511Z,1.85
2023-02-19T22:43:55.847Z,2.00
2023-02-19T22:46:24.142Z,1.85
2023-02-19T22:48:51.110Z,1.58
2023-02-19T22:51:19.467Z,1.60
2023-02-19T22:53:49.811Z,1.77
2023-02-19T22:56:18.185Z,1.80
2023-02-19T22:58:44.999Z,1.55
2023-02-19T23:01:13.128Z,2.13
2023-02-19T23:03:45.658Z,2.33
2023-02-19T23:06:12.546Z,2.08
2023-02-19T23:08:39.324Z,1.98
2023-02-19T23:11:07.538Z,2.20
2023-02-19T23:13:34.028Z,2.05
2023-02-19T23:16:01.060Z,2.03
2023-02-19T23:18:27.597Z,2.40
2023-02-19T23:20:54.165Z,2.15
2023-02-19T23:23:20.725Z,2.17
2023-02-19T23:25:47.340Z,2.63
2023-02-19T23:28:15.407Z,2.05
2023-02-19T23:30:42.484Z,2.38
2023-02-19T23:33:09.074Z,2.97
2023-02-19T23:35:35.825Z,2.60
2023-02-19T23:38:02.671Z,2.38
2023-02-19T23:40:29.633Z,2.50
2023-02-19T23:42:56.134Z,2.17
2023-02-19T23:45:24.309Z,2.35
2023-02-19T23:47:51.069Z,2.80
2023-02-19T23:50:18.550Z,2.58
2023-02-19T23:52:45.142Z,2.65
2023-02-19T23:55:11.788Z,3.40
2023-02-19T23:57:38.312Z,2.85
